Airfield :
LOGIN :

Register | Disclaimer

   EN    FR    IT 

 










Legend :    VFR   Marginal VFR   IFR   Intensive IFR   Very Intensive IFR
Visi :
Ceiling :
>= 8 km
>= 3000ft
5 to 8 km
1000 to 3000 ft
1500m to 5 km
500 to 1000 ft
800 to 1500m
200 to 500 ft
< 800m
< 200 ft
Symbols :   Thunderstorms  Fog  Heavy snow  Heavy precipitations  Wind > 20 kt
SIGMETs :     Misc.  Thunderstorms  Icing  Turbulence  Mountain Waves  Volcanic Ashes






- Airport Elevation : 286 ft
- IATA code : TRF


ENTO - Sandefjord , Torp

CURRENT METAR :
  • 101250Z 14004KT 110V180 9999 VCSH FEW025CB SCT060 17/09 Q1007 NOSIG

EXPIRED METARs :
  • 101220Z 12007KT 060V150 9999 FEW026TCU SCT040 SCT100 16/10 Q1007 NOSIG
  • 101150Z 13006KT 050V200 9999 SCT026TCU BKN042 17/09 Q1007 NOSIG
  • 101120Z 13005KT 070V170 9999 VCSH SCT028TCU 17/10 Q1008 NOSIG
  • 101050Z 18004KT 120V210 9999 VCSH FEW008 SCT027TCU 16/08 Q1008 RERA NOSIG
  • 101020Z 17005KT 130V220 9999 VCSH FEW008 SCT027TCU 15/10 Q1008 RESHRA TEMPO TSRA

TAF TAF ENTO
Valid from the 10 at 12:00 until the 11 at 12:00 UTC


1012/1112 VRB07KT 9999 FEW030TCU BKN040
TEMPO 1012/1019 SHRA SCT020CB BKN030
PROB40
TEMPO 1012/1019 4000 TSRA
TEMPO 1105/1108 SHRA FEW020CB BKN030
BECMG 1105/1107 34012KT



MET'MAP, your aeronautical weather chart ! - Copyright ORBIFLY December 2007 - Disclaimer

ORBIFLY MET'MAP TEAM :

Programming & Development : Alexandra Zaïnal
Concept & original design : Baudouin d'Aumeries
Assistance for programming : Marc-Olivier Méhu
Technical & hardware support : Manuel Goepfert

Contact : metmap@orbifly.com




SOURCES & CREDITS :

   NOAA